KDWU

Ashland Regional Airport

Ashland, Kentucky, USA
METAR KDWU 182156Z AUTO 21007KT 10SM FEW050 SCT060 33/22 A3000 RMK AO2 SLP153 T03280222
Observed Flight Rules
Jun-18 @ 21:56 UTC (54 minutes ago) Visual Flight Rules
Wind Visibility Clouds
210° at 7 knots 10 miles
  • Few at 5,000' AGL
  • Scattered at 6,000' AGL
Temperatures Readings
Current 33°C / 91°F
Dewpoint 22°C / 72°F
Humidity 52%
Altimeter 30" Hg
Pressure 1015.3 hPa
Elevation 166
METAR KDWU 182156Z AUTO 21007KT 10SM FEW050 SCT060 33/22 A3000 RMK AO2 SLP153 T03280222
Observed Flight Rules
Jun-18 @ 21:56 UTC
(54 minutes ago)
VFR
Wind Visibility
210° at 7 knots 10 miles
Clouds
  • Few at 5,000' AGL
  • Scattered at 6,000' AGL
Temperature Dewpoint
33°C / 91°F 22°C / 72°F
Humidity Altimeter Pressure
52% 30" Hg 1015.3 hPa